Time;durP1;ratioP1;P1;durP2;ratioP2;P2;SDS_P1;SDS_P2;PMS_P1;PMS_P2;Temp;Humidity;BMP_temperature;BMP_pressure;BME280_temperature;BME280_humidity;BME280_pressure;Samples;Min_cycle;Max_cycle;Signal;HPM_P1;HPM_P2
2021/09/20 00:01:24;;;;;;;12.80;6.55;;;;;;;17.54;72.93;99237.06;5072836;28;20048;-71
2021/09/20 00:03:50;;;;;;;10.07;5.93;;;;;;;17.34;73.62;99237.28;5082825;28;20032;-71
2021/09/20 00:06:16;;;;;;;15.88;8.05;;;;;;;17.14;74.36;99235.81;5070219;28;20025;-71
2021/09/20 00:08:42;;;;;;;10.57;7.13;;;;;;;17.09;74.62;99237.81;5071238;28;20127;-71
2021/09/20 00:11:07;;;;;;;13.50;6.50;;;;;;;17.18;74.08;99231.84;5078274;28;20534;-71
2021/09/20 00:13:33;;;;;;;15.38;7.45;;;;;;;17.18;74.34;99231.84;5077118;28;20414;-71
2021/09/20 00:15:59;;;;;;;10.00;6.85;;;;;;;17.18;73.77;99225.38;5076068;28;20111;-71
2021/09/20 00:18:24;;;;;;;9.00;6.70;;;;;;;17.15;74.75;99224.16;5080481;28;20442;-71
2021/09/20 00:20:49;;;;;;;10.27;6.53;;;;;;;17.03;74.32;99218.75;5080640;28;20032;-71
2021/09/20 00:23:15;;;;;;;7.45;6.53;;;;;;;16.88;75.09;99221.34;5081037;28;20506;-71
2021/09/20 00:25:40;;;;;;;13.73;7.32;;;;;;;16.94;74.89;99216.19;5073018;28;20047;-71
2021/09/20 00:28:06;;;;;;;14.68;6.63;;;;;;;16.88;75.17;99221.34;5071060;28;20099;-71
2021/09/20 00:30:31;;;;;;;14.63;7.32;;;;;;;16.94;74.67;99217.00;5071345;28;20028;-71
2021/09/20 00:32:57;;;;;;;14.05;7.03;;;;;;;16.97;74.76;99212.59;5072419;28;20569;-71
2021/09/20 00:35:22;;;;;;;14.80;6.70;;;;;;;16.94;75.78;99213.34;5080999;28;20031;-71
2021/09/20 00:37:48;;;;;;;16.95;7.47;;;;;;;16.84;75.52;99214.84;5074632;28;20038;-71
2021/09/20 00:40:13;;;;;;;11.20;6.60;;;;;;;16.83;75.37;99211.22;5070968;28;20024;-71
2021/09/20 00:42:39;;;;;;;16.42;7.22;;;;;;;16.76;75.63;99216.78;5069539;28;20021;-71
2021/09/20 00:45:06;;;;;;;9.68;7.47;;;;;;;16.79;75.93;99199.06;5070833;28;20031;-71
2021/09/20 00:47:32;;;;;;;12.73;6.90;;;;;;;16.68;75.84;99207.41;5071940;28;20479;-71
2021/09/20 00:49:58;;;;;;;8.70;7.78;;;;;;;16.67;76.00;99199.31;5076463;28;20119;-71
2021/09/20 00:52:23;;;;;;;13.38;7.03;;;;;;;16.72;75.67;99192.50;5086584;28;20433;-71
2021/09/20 00:54:50;;;;;;;14.73;7.68;;;;;;;16.62;76.24;99197.63;5087842;28;20031;-71
2021/09/20 00:57:17;;;;;;;12.68;8.25;;;;;;;16.58;75.74;99198.78;5070405;28;20406;-71
2021/09/20 00:59:43;;;;;;;10.52;7.50;;;;;;;16.46;76.55;99194.97;5072977;28;20040;-71
2021/09/20 01:02:08;;;;;;;12.43;7.75;;;;;;;16.30;76.84;99189.53;5070400;28;20128;-71
2021/09/20 01:04:34;;;;;;;12.60;8.07;;;;;;;16.32;76.81;99191.97;5070742;28;20032;-71
2021/09/20 01:06:59;;;;;;;13.98;8.95;;;;;;;16.28;76.28;99189.09;5070279;28;20417;-71
2021/09/20 01:09:25;;;;;;;16.70;8.38;;;;;;;16.34;76.33;99190.41;5070910;28;20020;-71
2021/09/20 01:11:52;;;;;;;18.00;8.55;;;;;;;16.20;76.28;99187.38;5074547;28;20039;-71
2021/09/20 01:14:17;;;;;;;12.88;9.57;;;;;;;16.22;76.63;99187.81;5070463;28;20089;-71
2021/09/20 01:16:43;;;;;;;15.48;8.70;;;;;;;16.17;75.90;99185.28;5070487;28;20028;-71
2021/09/20 01:19:09;;;;;;;10.98;7.38;;;;;;;16.11;76.88;99187.66;5076300;28;20024;-71
2021/09/20 01:21:34;;;;;;;11.40;8.93;;;;;;;16.02;76.90;99190.72;5081897;28;20032;-71
2021/09/20 01:24:00;;;;;;;11.98;8.55;;;;;;;16.13;77.30;99191.69;5071444;28;20017;-71
2021/09/20 01:26:25;;;;;;;12.75;7.72;;;;;;;16.11;76.97;99194.09;5069214;28;20066;-71
2021/09/20 01:28:51;;;;;;;11.70;7.85;;;;;;;16.23;76.99;99203.53;5068914;28;20503;-71
2021/09/20 01:31:16;;;;;;;15.10;7.88;;;;;;;16.24;76.60;99199.50;5073958;28;20032;-71
2021/09/20 01:33:42;;;;;;;15.25;8.23;;;;;;;16.21;76.50;99206.72;5089816;28;20139;-71
2021/09/20 01:36:07;;;;;;;14.70;8.70;;;;;;;16.02;77.75;99209.66;5083363;28;20023;-71
2021/09/20 01:38:33;;;;;;;15.20;8.73;;;;;;;16.13;77.69;99208.63;5090398;28;20064;-71
2021/09/20 01:40:59;;;;;;;11.75;8.82;;;;;;;16.06;78.12;99214.19;5073056;28;20078;-71
2021/09/20 01:43:24;;;;;;;15.52;8.45;;;;;;;16.17;77.70;99214.34;5070205;28;20016;-71
2021/09/20 01:45:50;;;;;;;12.98;8.57;;;;;;;16.20;77.51;99221.22;5085013;28;20032;-71
2021/09/20 01:48:17;;;;;;;12.27;8.18;;;;;;;16.09;77.87;99232.31;5090335;28;20031;-71
2021/09/20 01:50:44;;;;;;;14.93;8.02;;;;;;;16.29;77.16;99241.53;5077007;28;20479;-71
2021/09/20 01:53:09;;;;;;;11.23;8.40;;;;;;;16.07;77.07;99237.53;5083990;28;20033;-71
2021/09/20 01:55:35;;;;;;;11.63;7.38;;;;;;;16.18;76.95;99237.72;5076135;28;20028;-71
2021/09/20 01:58:00;;;;;;;18.42;7.78;;;;;;;16.07;76.92;99229.06;5090156;28;20502;-71
2021/09/20 02:00:26;;;;;;;12.75;8.80;;;;;;;15.95;76.84;99228.09;5079520;28;20025;-71
2021/09/20 02:02:51;;;;;;;13.43;8.55;;;;;;;15.86;77.39;99221.84;5068619;28;20098;-71
2021/09/20 02:05:17;;;;;;;12.93;8.85;;;;;;;15.77;77.74;99213.66;5068623;28;20472;-71
2021/09/20 02:07:42;;;;;;;11.55;8.15;;;;;;;15.86;77.77;99214.22;5077898;28;20036;-71
2021/09/20 02:10:12;;;;;;;12.63;7.93;;;;;;;15.85;77.91;99218.22;5086900;28;20039;-71
2021/09/20 02:12:37;;;;;;;13.53;7.77;;;;;;;15.72;78.16;99205.53;5081558;28;20035;-71
2021/09/20 02:15:05;;;;;;;11.93;8.13;;;;;;;15.69;78.00;99204.25;5092415;28;20390;-71
2021/09/20 02:17:31;;;;;;;10.95;7.88;;;;;;;15.75;77.83;99215.22;5088083;28;20031;-71
2021/09/20 02:19:56;;;;;;;10.20;7.40;;;;;;;15.77;77.72;99210.84;5089790;28;20476;-71
2021/09/20 02:22:22;;;;;;;10.90;8.18;;;;;;;15.75;77.75;99216.03;5075425;28;20415;-71
2021/09/20 02:24:47;;;;;;;11.57;8.00;;;;;;;15.74;78.02;99220.06;5073348;28;20406;-71
2021/09/20 02:27:13;;;;;;;9.75;7.50;;;;;;;15.62;78.01;99218.22;5075145;28;20020;-71
2021/09/20 02:29:38;;;;;;;12.25;7.10;;;;;;;15.70;78.16;99225.63;5084375;28;20052;-71
2021/09/20 02:32:04;;;;;;;10.27;7.40;;;;;;;15.72;78.37;99219.63;5080758;28;20449;-71
2021/09/20 02:34:30;;;;;;;10.20;7.00;;;;;;;15.71;78.39;99213.16;5073178;28;20457;-71
2021/09/20 02:36:55;;;;;;;11.60;7.47;;;;;;;15.70;78.02;99207.91;5073372;28;20036;-71
2021/09/20 02:39:21;;;;;;;17.95;8.13;;;;;;;15.73;77.53;99209.97;5072953;28;20029;-71
2021/09/20 02:41:47;;;;;;;16.67;7.75;;;;;;;15.72;77.67;99206.31;5073195;28;20078;-71
2021/09/20 02:44:12;;;;;;;10.15;7.45;;;;;;;15.76;77.66;99189.47;5074930;28;20056;-71
2021/09/20 02:46:38;;;;;;;13.15;7.55;;;;;;;15.83;77.27;99194.41;5083517;28;20031;-71
2021/09/20 02:49:04;;;;;;;14.45;7.88;;;;;;;15.90;77.15;99193.75;5071697;28;20020;-71
2021/09/20 02:51:29;;;;;;;10.23;7.70;;;;;;;16.02;77.01;99195.56;5072865;28;20021;-71
2021/09/20 02:53:56;;;;;;;11.10;7.68;;;;;;;15.95;76.56;99190.63;5087218;28;20032;-71
2021/09/20 02:56:22;;;;;;;11.63;6.28;;;;;;;15.81;76.93;99203.28;5080385;28;20028;-71
2021/09/20 02:58:47;;;;;;;10.90;7.32;;;;;;;15.92;76.73;99205.47;5072835;28;20036;-71
2021/09/20 03:01:13;;;;;;;13.52;7.57;;;;;;;15.94;76.36;99203.09;5072584;28;20048;-71
2021/09/20 03:03:39;;;;;;;11.68;8.40;;;;;;;15.82;76.52;99207.72;5072659;28;20431;-71
2021/09/20 03:06:04;;;;;;;12.73;7.07;;;;;;;15.75;76.52;99213.22;5085972;28;20506;-71
2021/09/20 03:08:30;;;;;;;17.63;8.57;;;;;;;15.61;76.88;99210.16;5076784;28;20055;-71
2021/09/20 03:10:56;;;;;;;14.20;7.60;;;;;;;15.53;77.36;99212.03;5071389;28;20021;-71
2021/09/20 03:13:21;;;;;;;15.60;8.02;;;;;;;15.46;77.35;99209.09;5077127;28;20402;-71
2021/09/20 03:15:47;;;;;;;13.40;7.15;;;;;;;15.51;77.29;99206.78;5090467;28;20024;-71
2021/09/20 03:18:12;;;;;;;11.73;7.43;;;;;;;15.52;77.24;99207.59;5091664;28;20500;-71
2021/09/20 03:20:38;;;;;;;19.95;7.57;;;;;;;15.49;77.27;99200.69;5092250;28;20552;-71
2021/09/20 03:23:03;;;;;;;15.13;8.23;;;;;;;15.48;77.18;99207.53;5092563;28;20026;-71
2021/09/20 03:25:29;;;;;;;13.68;7.38;;;;;;;15.58;76.88;99192.00;5092382;28;20106;-71
2021/09/20 03:27:54;;;;;;;11.90;6.82;;;;;;;15.54;76.79;99183.47;5092409;28;20024;-71
2021/09/20 03:30:20;;;;;;;10.70;7.18;;;;;;;15.57;76.39;99193.19;5092126;28;20181;-71
2021/09/20 03:32:46;;;;;;;11.60;7.65;;;;;;;15.48;76.66;99207.53;5091941;28;20035;-71
2021/09/20 03:35:14;;;;;;;19.42;8.15;;;;;;;15.43;76.97;99210.63;5092126;28;20028;-71
2021/09/20 03:37:40;;;;;;;15.75;7.57;;;;;;;15.51;77.05;99195.50;5092106;28;20065;-71
2021/09/20 03:40:06;;;;;;;13.20;7.35;;;;;;;15.62;76.94;99200.50;5092132;28;20039;-71
2021/09/20 03:42:32;;;;;;;14.35;7.30;;;;;;;15.62;76.52;99200.50;5088201;28;20031;-71
2021/09/20 03:44:57;;;;;;;13.73;7.18;;;;;;;15.66;76.06;99201.38;5091184;28;20020;-71
2021/09/20 03:47:23;;;;;;;14.18;7.47;;;;;;;15.63;76.39;99193.69;5090061;28;20028;-71
2021/09/20 03:49:48;;;;;;;9.98;7.13;;;;;;;15.55;76.58;99192.75;5092512;28;20020;-71
2021/09/20 03:52:14;;;;;;;20.02;7.78;;;;;;;15.60;76.31;99200.09;5092668;28;20101;-71
2021/09/20 03:54:39;;;;;;;13.73;7.05;;;;;;;15.63;77.33;99204.97;5092284;28;20499;-71
2021/09/20 03:57:05;;;;;;;14.95;7.60;;;;;;;15.71;76.73;99204.69;5091097;28;20024;-71
2021/09/20 03:59:30;;;;;;;15.57;7.47;;;;;;;15.83;75.67;99202.88;5092059;28;20060;-71
2021/09/20 04:01:56;;;;;;;13.13;7.30;;;;;;;15.64;76.28;99195.31;5087856;28;20469;-71
2021/09/20 04:04:22;;;;;;;9.73;6.75;;;;;;;15.66;76.35;99195.75;5072293;28;20048;-71
2021/09/20 04:06:48;;;;;;;12.30;7.20;;;;;;;15.69;76.77;99200.66;5086362;28;20107;-71
2021/09/20 04:09:13;;;;;;;19.55;8.25;;;;;;;15.79;76.21;99216.09;5079504;28;20396;-71
2021/09/20 04:11:40;;;;;;;11.93;7.65;;;;;;;15.78;75.98;99226.56;5082117;28;20038;-71
2021/09/20 04:14:07;;;;;;;19.98;8.35;;;;;;;15.71;76.06;99223.63;5076549;28;20080;-71
2021/09/20 04:16:32;;;;;;;13.35;7.72;;;;;;;15.55;76.65;99226.56;5083471;28;20035;-71
2021/09/20 04:18:58;;;;;;;11.48;7.38;;;;;;;15.73;76.39;99226.88;5081160;28;20096;-71
2021/09/20 04:21:24;;;;;;;13.43;8.00;;;;;;;15.80;76.52;99229.81;5089091;28;20126;-71
2021/09/20 04:23:49;;;;;;;10.23;7.65;;;;;;;15.79;76.61;99236.66;5091968;28;20042;-71
2021/09/20 04:26:15;;;;;;;12.43;7.53;;;;;;;15.84;75.92;99230.72;5090909;28;20395;-71
2021/09/20 04:28:40;;;;;;;12.90;7.90;;;;;;;15.95;76.10;99236.56;5091843;28;20031;-71
2021/09/20 04:31:06;;;;;;;9.90;7.43;;;;;;;15.90;76.56;99228.41;5090986;28;20055;-71
2021/09/20 04:33:31;;;;;;;10.20;8.30;;;;;;;15.95;76.50;99225.25;5089870;28;20497;-71
2021/09/20 04:35:57;;;;;;;13.18;7.40;;;;;;;16.03;76.19;99231.03;5091144;28;20023;-71
2021/09/20 04:38:22;;;;;;;10.48;7.03;;;;;;;16.17;75.64;99230.44;5090179;28;20498;-71
2021/09/20 04:40:48;;;;;;;10.55;7.15;;;;;;;16.06;75.70;99227.44;5090075;28;20024;-70
2021/09/20 04:43:13;;;;;;;17.80;8.00;;;;;;;16.07;75.88;99227.09;5090457;28;20407;-72
2021/09/20 04:45:40;;;;;;;18.50;7.95;;;;;;;16.13;75.67;99219.13;5089143;28;20027;-70
2021/09/20 04:48:10;;;;;;;11.20;8.25;;;;;;;16.12;75.79;99217.50;5090995;28;20065;-74
2021/09/20 04:50:37;;;;;;;16.50;8.23;;;;;;;16.10;75.89;99215.03;5089108;28;20027;-71
2021/09/20 04:53:05;;;;;;;13.32;8.52;;;;;;;16.15;75.94;99222.38;5085571;28;20024;-71
2021/09/20 04:55:30;;;;;;;11.43;8.18;;;;;;;16.05;76.11;99217.38;5089750;28;20016;-72
2021/09/20 04:57:56;;;;;;;12.27;8.32;;;;;;;16.10;76.62;99217.84;5093167;28;20482;-72
2021/09/20 05:00:21;;;;;;;11.32;8.48;;;;;;;16.17;76.13;99228.44;5084593;28;20030;-73
2021/09/20 05:02:47;;;;;;;11.40;9.20;;;;;;;16.28;75.50;99237.06;5069368;28;20482;-72
2021/09/20 05:05:13;;;;;;;19.40;8.18;;;;;;;16.08;75.70;99237.19;5070430;28;20021;-71
2021/09/20 05:07:39;;;;;;;14.52;9.43;;;;;;;16.12;75.99;99245.69;5071093;28;20021;-72
2021/09/20 05:10:05;;;;;;;15.77;8.77;;;;;;;16.00;76.51;99241.06;5082222;28;20089;-71
2021/09/20 05:12:31;;;;;;;17.85;10.18;;;;;;;16.06;76.05;99235.91;5080727;28;20467;-71
2021/09/20 05:14:56;;;;;;;16.52;9.30;;;;;;;16.14;75.84;99229.19;5070850;28;20142;-72
2021/09/20 05:17:21;;;;;;;19.58;9.82;;;;;;;16.17;75.85;99231.25;5086241;28;20035;-72
2021/09/20 05:19:47;;;;;;;14.98;10.25;;;;;;;16.12;75.64;99246.50;5081952;28;20027;-72
2021/09/20 05:22:12;;;;;;;15.93;10.02;;;;;;;16.16;75.73;99224.00;5073102;28;20035;-72
2021/09/20 05:24:38;;;;;;;12.88;9.38;;;;;;;16.23;75.46;99229.75;5074628;28;20032;-72
2021/09/20 05:27:03;;;;;;;17.15;9.95;;;;;;;16.18;75.81;99237.72;5079578;28;20020;-72
2021/09/20 05:29:29;;;;;;;11.30;9.38;;;;;;;16.13;76.93;99264.25;5072496;28;20154;-72
2021/09/20 05:31:54;;;;;;;13.90;9.30;;;;;;;16.20;76.77;99264.34;5074851;28;20032;-72
2021/09/20 05:34:22;;;;;;;13.10;9.13;;;;;;;16.21;76.59;99253.91;5087134;28;20085;-72
2021/09/20 05:36:48;;;;;;;11.30;8.88;;;;;;;16.23;75.79;99249.50;5091012;28;20556;-72
2021/09/20 05:39:14;;;;;;;14.43;9.07;;;;;;;16.17;76.48;99255.81;5089423;28;20111;-72
2021/09/20 05:41:39;;;;;;;18.85;9.45;;;;;;;16.25;76.03;99254.75;5084148;28;20119;-74
2021/09/20 05:44:05;;;;;;;10.48;9.15;;;;;;;16.23;75.74;99251.50;5093819;28;20011;-72
2021/09/20 05:46:30;;;;;;;12.77;8.35;;;;;;;16.27;76.04;99241.06;5086170;28;20459;-72
2021/09/20 05:48:56;;;;;;;10.15;8.25;;;;;;;16.26;75.79;99253.56;5094907;28;20387;-70
2021/09/20 05:51:21;;;;;;;24.67;8.88;;;;;;;16.25;76.21;99254.75;5093293;28;20027;-70
2021/09/20 05:53:47;;;;;;;12.55;7.80;;;;;;;16.24;76.39;99248.31;5094689;28;20440;-70
2021/09/20 05:56:13;;;;;;;11.98;7.68;;;;;;;16.27;76.44;99246.72;5089680;28;20024;-70
2021/09/20 05:58:39;;;;;;;15.50;9.18;;;;;;;16.30;76.34;99250.78;5093775;28;20027;-70
2021/09/20 06:01:05;;;;;;;11.00;8.55;;;;;;;16.35;76.40;99258.94;5085982;28;20587;-70
2021/09/20 06:03:30;;;;;;;15.60;8.73;;;;;;;16.32;76.11;99268.16;5091366;28;20054;-70
2021/09/20 06:05:56;;;;;;;15.88;8.23;;;;;;;16.27;76.71;99266.47;5088840;28;20073;-70
2021/09/20 06:08:21;;;;;;;11.02;7.80;;;;;;;16.28;76.54;99266.09;5087416;28;20024;-70
2021/09/20 06:10:47;;;;;;;11.57;8.75;;;;;;;16.38;76.43;99266.66;5091798;28;20503;-70
2021/09/20 06:13:12;;;;;;;14.68;8.02;;;;;;;16.48;76.16;99257.53;5088419;28;20031;-70
2021/09/20 06:15:37;;;;;;;11.43;8.75;;;;;;;16.54;76.00;99266.50;5084062;28;20443;-70
2021/09/20 06:18:05;;;;;;;13.20;8.13;;;;;;;16.42;76.36;99262.69;5081814;28;20035;-70
2021/09/20 06:20:31;;;;;;;11.00;8.27;;;;;;;16.48;76.28;99253.91;5087661;28;20047;-70
2021/09/20 06:22:56;;;;;;;14.75;9.45;;;;;;;16.50;76.55;99249.50;5084801;28;20039;-70
2021/09/20 06:25:23;;;;;;;19.48;8.88;;;;;;;16.59;76.52;99257.69;5088546;28;20465;-70
2021/09/20 06:27:49;;;;;;;13.30;9.35;;;;;;;16.68;76.58;99261.06;5081433;28;20036;-70
2021/09/20 06:30:14;;;;;;;16.17;9.77;;;;;;;16.72;76.67;99265.94;5085504;28;20425;-70
2021/09/20 06:32:40;;;;;;;18.30;8.45;;;;;;;16.76;76.89;99255.50;5086802;28;20077;-71
2021/09/20 06:35:07;;;;;;;17.33;10.00;;;;;;;16.79;76.88;99251.91;5092293;28;20055;-70
2021/09/20 06:37:32;;;;;;;19.73;9.93;;;;;;;16.87;76.67;99238.69;5075856;28;20148;-70
2021/09/20 06:39:58;;;;;;;15.40;10.00;;;;;;;16.92;76.59;99224.22;5085338;28;20032;-70
2021/09/20 06:42:24;;;;;;;13.00;9.57;;;;;;;16.94;76.87;99219.00;5078906;28;20494;-70
2021/09/20 06:44:50;;;;;;;14.75;9.70;;;;;;;17.00;76.85;99220.34;5088032;28;20024;-70
2021/09/20 06:47:21;;;;;;;13.25;9.25;;;;;;;16.95;76.48;99240.41;5078855;28;20031;-71
2021/09/20 06:49:47;;;;;;;19.73;9.93;;;;;;;16.97;76.40;99250.13;5081443;28;20030;-70
2021/09/20 06:52:12;;;;;;;15.38;8.88;;;;;;;17.00;76.59;99247.75;5089388;28;20032;-70
2021/09/20 06:54:38;;;;;;;17.17;9.65;;;;;;;17.05;76.05;99265.19;5085137;28;20020;-71
2021/09/20 06:57:03;;;;;;;18.52;9.57;;;;;;;17.07;76.44;99254.31;5090821;28;20038;-72
2021/09/20 06:59:29;;;;;;;11.40;9.07;;;;;;;17.07;76.20;99231.69;5082764;28;20094;-71
2021/09/20 07:01:54;;;;;;;15.57;9.68;;;;;;;17.15;76.36;99240.28;5080385;28;20079;-71
2021/09/20 07:04:20;;;;;;;17.33;10.10;;;;;;;17.18;76.72;99254.44;5081374;28;20020;-73
2021/09/20 07:06:45;;;;;;;13.70;9.25;;;;;;;17.26;76.36;99244.03;5086686;28;20068;-72
2021/09/20 07:09:15;;;;;;;20.13;10.02;;;;;;;17.23;76.83;99244.81;5085914;28;20399;-70
2021/09/20 07:11:41;;;;;;;15.80;9.70;;;;;;;17.33;76.15;99251.78;5087118;28;20040;-71
2021/09/20 07:14:06;;;;;;;116.10;99.80;;;;;;;17.28;75.29;99258.59;5080975;28;20055;-72
2021/09/20 07:16:32;;;;;;;325.08;257.40;;;;;;;17.23;75.85;99259.75;5075276;28;20064;-71
2021/09/20 07:18:58;;;;;;;189.88;142.65;;;;;;;17.23;76.06;99259.75;5073896;28;20020;-71
2021/09/20 07:21:24;;;;;;;86.47;60.90;;;;;;;17.30;76.25;99261.03;5074920;28;20483;-71
2021/09/20 07:23:51;;;;;;;22.33;16.40;;;;;;;17.33;76.45;99243.31;5075908;28;20473;-71
2021/09/20 07:26:18;;;;;;;20.20;12.18;;;;;;;17.40;76.34;99261.16;5082669;28;20471;-71
2021/09/20 07:28:44;;;;;;;22.02;15.73;;;;;;;17.52;76.23;99271.41;5072276;28;20078;-72
2021/09/20 07:31:10;;;;;;;17.92;12.77;;;;;;;17.53;76.36;99275.84;5088324;28;20111;-72
2021/09/20 07:33:35;;;;;;;23.73;10.80;;;;;;;17.57;76.50;99284.38;5078318;28;20025;-71
2021/09/20 07:36:01;;;;;;;19.67;11.77;;;;;;;17.54;76.21;99279.47;5075354;28;20012;-70
2021/09/20 07:38:26;;;;;;;25.13;11.77;;;;;;;17.64;76.18;99270.28;5071530;28;20016;-70
2021/09/20 07:40:51;;;;;;;20.05;9.95;;;;;;;17.73;76.19;99267.16;5088492;28;20034;-74
2021/09/20 07:43:17;;;;;;;18.65;10.18;;;;;;;17.86;75.60;99247.06;5089894;28;20020;-73
2021/09/20 07:45:44;;;;;;;17.10;9.48;;;;;;;17.94;74.97;99252.41;5090070;28;20039;-72
2021/09/20 07:48:10;;;;;;;13.65;9.45;;;;;;;18.14;74.27;99251.38;5085932;28;20395;-72
2021/09/20 07:50:35;;;;;;;15.82;9.45;;;;;;;18.22;73.96;99261.53;5091038;28;20027;-70
2021/09/20 07:53:00;;;;;;;17.67;10.30;;;;;;;18.24;74.41;99271.28;5084967;28;20058;-71
2021/09/20 07:55:26;;;;;;;13.45;9.07;;;;;;;18.32;74.15;99274.97;5082763;28;20073;-72
2021/09/20 07:57:52;;;;;;;11.35;8.07;;;;;;;18.40;73.72;99283.53;5084703;28;20112;-74
2021/09/20 08:00:18;;;;;;;12.80;8.50;;;;;;;18.47;73.29;99275.88;5086546;28;20032;-71
2021/09/20 08:02:44;;;;;;;14.80;10.80;;;;;;;18.54;72.48;99269.47;5090649;28;20499;-71
2021/09/20 08:05:10;;;;;;;13.85;9.90;;;;;;;18.61;72.35;99263.84;5085690;28;20078;-71
2021/09/20 08:07:36;;;;;;;14.15;8.13;;;;;;;18.72;72.17;99258.25;5085722;28;20027;-71
2021/09/20 08:10:03;;;;;;;15.88;9.07;;;;;;;18.78;71.58;99261.50;5084865;28;20027;-73
2021/09/20 08:12:28;;;;;;;12.10;8.48;;;;;;;18.84;71.57;99262.78;5085710;28;20047;-72
2021/09/20 08:14:54;;;;;;;13.32;8.27;;;;;;;18.94;71.07;99258.34;5086035;28;20027;-73
2021/09/20 08:17:19;;;;;;;13.27;7.75;;;;;;;19.03;70.75;99255.19;5071689;28;20029;-73
2021/09/20 08:19:45;;;;;;;10.63;7.30;;;;;;;19.13;70.00;99262.94;5085890;28;20554;-73
2021/09/20 08:22:10;;;;;;;31.73;8.85;;;;;;;19.30;69.30;99261.38;5091225;28;20020;-72
2021/09/20 08:24:36;;;;;;;32.95;7.80;;;;;;;19.35;68.50;99251.66;5087975;28;20020;-72
2021/09/20 08:27:02;;;;;;;22.67;8.93;;;;;;;19.55;68.56;99235.09;5087580;28;20111;-73
2021/09/20 08:29:27;;;;;;;24.65;8.82;;;;;;;19.78;69.00;99237.56;5087156;28;20059;-73
2021/09/20 08:31:53;;;;;;;19.75;7.88;;;;;;;20.23;65.09;99221.38;5083682;28;20035;-73
2021/09/20 08:34:18;;;;;;;34.80;9.23;;;;;;;20.36;66.45;99225.41;5086862;28;20060;-73
2021/09/20 08:36:44;;;;;;;34.17;13.85;;;;;;;20.39;67.10;99224.59;5085076;28;20093;-73
2021/09/20 08:39:09;;;;;;;40.40;19.15;;;;;;;20.38;67.40;99225.81;5084965;28;20039;-72
2021/09/20 08:41:39;;;;;;;39.95;18.20;;;;;;;20.37;66.60;99214.84;5086693;28;20034;-73
2021/09/20 08:44:05;;;;;;;37.88;13.00;;;;;;;20.36;66.10;99207.56;5087013;28;20035;-73
2021/09/20 08:46:31;;;;;;;27.73;10.65;;;;;;;20.47;66.18;99197.00;5088379;28;20108;-72
2021/09/20 08:48:58;;;;;;;27.63;9.18;;;;;;;20.50;65.52;99201.03;5083751;28;20024;-72
2021/09/20 08:51:23;;;;;;;22.75;7.80;;;;;;;20.55;64.94;99192.91;5082484;28;20039;-72
2021/09/20 08:53:50;;;;;;;30.33;9.35;;;;;;;20.77;65.01;99195.69;5082321;28;20076;-73
2021/09/20 08:56:16;;;;;;;30.98;9.25;;;;;;;20.85;65.05;99185.13;5082566;28;21601;-73
2021/09/20 08:58:42;;;;;;;14.88;7.22;;;;;;;21.15;63.88;99181.75;5081177;28;20106;-73
2021/09/20 09:01:07;;;;;;;14.32;7.13;;;;;;;21.40;62.52;99180.78;5079301;28;20079;-73
2021/09/20 09:03:33;;;;;;;23.30;7.47;;;;;;;21.49;62.18;99183.16;5076255;28;20028;-74
2021/09/20 09:05:59;;;;;;;21.90;6.78;;;;;;;21.68;61.38;99187.50;5073624;28;20519;-73
2021/09/20 09:08:35;;;;;;;25.27;7.57;;;;;;;21.73;61.20;99181.38;5080786;28;20039;-73
2021/09/20 09:11:08;;;;;;;32.75;7.53;;;;;;;21.74;61.91;99180.16;5074244;28;20026;-73
2021/09/20 09:13:45;;;;;;;17.77;5.72;;;;;;;22.00;60.14;99179.94;5074647;28;20036;-73
2021/09/20 09:16:19;;;;;;;20.95;7.18;;;;;;;22.05;61.00;99173.78;5085853;28;20020;-73
2021/09/20 09:19:03;;;;;;;14.85;7.78;;;;;;;21.96;60.98;99173.47;5077079;28;20089;-74
2021/09/20 09:21:34;;;;;;;18.33;5.65;;;;;;;22.03;59.70;99176.25;5082841;28;20402;-74
2021/09/20 09:24:10;;;;;;;14.55;6.57;;;;;;;22.18;58.66;99170.44;5100977;28;20028;-74
2021/09/20 09:26:37;;;;;;;17.35;6.97;;;;;;;22.17;58.22;99166.75;5082356;28;20078;-73
2021/09/20 09:29:13;;;;;;;22.73;8.15;;;;;;;22.16;58.51;99168.81;5085489;28;20043;-71
2021/09/20 09:31:42;;;;;;;15.07;6.80;;;;;;;22.24;59.69;99166.69;5080940;28;20035;-71
2021/09/20 09:34:17;;;;;;;16.40;6.45;;;;;;;22.31;57.30;99165.81;5080450;28;20036;-71
2021/09/20 09:36:43;;;;;;;19.10;6.70;;;;;;;22.54;57.91;99161.53;5078874;28;20024;-72
2021/09/20 09:39:08;;;;;;;18.05;7.28;;;;;;;22.56;57.80;99159.88;5083525;28;20035;-71
2021/09/20 09:41:36;;;;;;;7.75;6.18;;;;;;;22.40;58.77;99156.75;5088921;28;20104;-72
2021/09/20 09:44:11;;;;;;;9.63;5.45;;;;;;;22.37;58.88;99155.56;5081120;28;20012;-71
2021/09/20 09:46:42;;;;;;;12.55;6.05;;;;;;;22.42;58.63;99143.72;5084850;28;20128;-73
2021/09/20 09:49:16;;;;;;;10.98;6.18;;;;;;;22.44;58.60;99146.94;5076972;28;20028;-72
2021/09/20 09:52:03;;;;;;;18.35;7.45;;;;;;;22.54;57.98;99142.38;5077485;28;20058;-72
2021/09/20 09:54:37;;;;;;;11.18;6.28;;;;;;;22.56;57.69;99136.25;5084532;28;20432;-72
2021/09/20 09:57:34;;;;;;;24.13;7.38;;;;;;;22.56;58.17;99141.94;5077832;28;20027;-71
2021/09/20 10:00:10;;;;;;;12.32;6.25;;;;;;;22.60;58.16;99141.91;5028193;28;20410;-71
2021/09/20 10:02:44;;;;;;;13.27;6.53;;;;;;;22.58;57.55;99137.44;5074985;28;20044;-72
2021/09/20 10:05:12;;;;;;;14.98;5.80;;;;;;;22.91;55.91;99128.47;5080991;28;20880;-72
2021/09/20 10:07:43;;;;;;;17.13;6.47;;;;;;;23.14;56.43;99124.09;5087540;28;20028;-72
2021/09/20 10:10:21;;;;;;;16.50;6.88;;;;;;;23.33;55.23;99131.16;5084762;28;20131;-71
2021/09/20 10:12:52;;;;;;;13.43;6.20;;;;;;;23.37;56.29;99129.06;5079861;28;20106;-71
2021/09/20 10:15:20;;;;;;;15.88;7.30;;;;;;;23.38;55.91;99119.25;5084598;28;20074;-71
2021/09/20 10:17:47;;;;;;;18.52;6.70;;;;;;;23.51;56.44;99113.78;5088719;28;20070;-71
2021/09/20 10:20:20;;;;;;;17.00;6.10;;;;;;;23.76;55.20;99103.16;5080921;28;20094;-72
2021/09/20 10:22:46;;;;;;;17.30;5.82;;;;;;;23.94;54.37;99103.66;5086273;28;20052;-72
2021/09/20 10:25:13;;;;;;;12.02;6.32;;;;;;;23.95;54.30;99101.59;5077566;28;20027;-72
2021/09/20 10:27:39;;;;;;;13.68;6.93;;;;;;;24.09;54.32;99100.56;5083021;28;20028;-72
2021/09/20 10:30:13;;;;;;;17.13;6.47;;;;;;;24.08;54.48;99094.06;5085600;28;20193;-71
2021/09/20 10:32:42;;;;;;;21.25;7.38;;;;;;;24.00;55.01;99098.25;5071083;28;20107;-71
2021/09/20 10:35:30;;;;;;;12.15;5.70;;;;;;;23.94;54.99;99086.50;5081354;28;20036;-71
2021/09/20 10:37:59;;;;;;;16.63;7.45;;;;;;;24.09;54.90;99080.56;5077051;28;20560;-71
2021/09/20 10:40:25;;;;;;;8.90;5.50;;;;;;;24.18;55.28;99080.78;5074801;28;20027;-71
2021/09/20 10:43:03;;;;;;;14.13;6.80;;;;;;;24.14;53.96;99080.06;5075208;28;20412;-71
2021/09/20 10:45:52;;;;;;;15.77;6.80;;;;;;;24.16;53.01;99093.91;5074844;28;20027;-71
2021/09/20 10:48:19;;;;;;;15.52;6.60;;;;;;;24.14;53.12;99091.50;5079670;28;20032;-71
2021/09/20 10:51:19;;;;;;;19.65;7.15;;;;;;;24.20;52.55;99086.06;5084872;28;20471;-71
2021/09/20 10:53:44;;;;;;;12.80;6.45;;;;;;;24.33;51.67;99081.31;5065156;28;20047;-71
2021/09/20 10:56:15;;;;;;;9.82;6.10;;;;;;;24.21;52.59;99079.91;5091687;28;20028;-71
2021/09/20 10:59:10;;;;;;;12.10;5.47;;;;;;;24.10;52.10;99080.13;5082556;28;20027;-71
2021/09/20 11:01:37;;;;;;;11.82;6.40;;;;;;;23.95;52.31;99075.88;5077875;28;20110;-71
2021/09/20 11:04:09;;;;;;;8.35;6.13;;;;;;;23.90;52.44;99070.69;5092117;28;20423;-71
2021/09/20 11:06:39;;;;;;;21.90;6.45;;;;;;;23.91;52.87;99067.41;5091548;28;20039;-71
2021/09/20 11:09:08;;;;;;;19.25;7.32;;;;;;;23.91;53.84;99072.31;5087764;28;20023;-71
2021/09/20 11:11:43;;;;;;;11.43;6.30;;;;;;;23.89;54.26;99072.75;5089598;28;20043;-71
2021/09/20 11:14:17;;;;;;;21.17;6.60;;;;;;;23.84;54.97;99061.81;5087869;28;20161;-72
2021/09/20 11:16:53;;;;;;;11.93;5.50;;;;;;;23.86;54.16;99070.75;5092238;28;20088;-74
2021/09/20 11:19:25;;;;;;;23.90;7.35;;;;;;;23.87;54.11;99060.94;5085594;28;20023;-72
2021/09/20 11:22:12;;;;;;;18.23;6.38;;;;;;;23.81;53.54;99059.84;5075974;28;20059;-72
2021/09/20 11:24:45;;;;;;;8.70;5.93;;;;;;;23.87;53.39;99069.50;5089447;28;20103;-72